Time;durP1;ratioP1;P1;durP2;ratioP2;P2;SDS_P1;SDS_P2;PMS_P1;PMS_P2;Temp;Humidity;BMP_temperature;BMP_pressure;BME280_temperature;BME280_humidity;BME280_pressure;Samples;Min_cycle;Max_cycle;Signal;HPM_P1;HPM_P2
2023/04/16 00:01:38;;;;;;;3.67;1.65;;;16.10;56.40;;;;;;5074540;28;20178;-55
2023/04/16 00:04:03;;;;;;;4.00;2.17;;;16.10;56.40;;;;;;5074015;28;20231;-53
2023/04/16 00:06:29;;;;;;;3.25;1.70;;;16.10;56.40;;;;;;5073230;28;20243;-55
2023/04/16 00:08:54;;;;;;;3.83;2.10;;;16.00;56.30;;;;;;5073965;28;20186;-52
2023/04/16 00:11:20;;;;;;;3.00;2.25;;;16.00;56.30;;;;;;5074067;28;20185;-56
2023/04/16 00:13:46;;;;;;;3.03;1.92;;;16.00;56.30;;;;;;5073620;28;20183;-54
2023/04/16 00:16:11;;;;;;;5.97;1.98;;;16.00;56.30;;;;;;5074046;28;20174;-55
2023/04/16 00:18:37;;;;;;;2.72;1.45;;;16.10;56.40;;;;;;5074398;28;20190;-57
2023/04/16 00:21:02;;;;;;;3.15;2.00;;;16.00;56.40;;;;;;5072944;28;20178;-54
2023/04/16 00:23:28;;;;;;;3.50;2.00;;;16.00;56.30;;;;;;5073328;28;20229;-52
2023/04/16 00:25:56;;;;;;;5.57;2.30;;;16.00;56.40;;;;;;5073458;28;20260;-51
2023/04/16 00:28:21;;;;;;;2.45;1.88;;;16.00;56.40;;;;;;5072725;28;20210;-52
2023/04/16 00:30:47;;;;;;;4.28;1.95;;;16.00;56.40;;;;;;5073304;28;20197;-52
2023/04/16 00:33:12;;;;;;;3.42;1.75;;;16.00;56.40;;;;;;5073435;28;20186;-52
2023/04/16 00:35:38;;;;;;;5.05;2.40;;;16.00;56.40;;;;;;5072073;28;20634;-54
2023/04/16 00:38:03;;;;;;;3.75;1.92;;;16.00;56.40;;;;;;5073873;28;20182;-54
2023/04/16 00:40:29;;;;;;;4.35;2.22;;;16.00;56.40;;;;;;5073436;28;20208;-54
2023/04/16 00:42:54;;;;;;;4.07;2.33;;;16.00;56.40;;;;;;5072523;28;20217;-54
2023/04/16 00:45:20;;;;;;;4.20;1.98;;;16.00;56.40;;;;;;5073020;28;20182;-55
2023/04/16 00:47:45;;;;;;;4.10;2.47;;;16.00;56.50;;;;;;5073649;28;20219;-54
2023/04/16 00:50:11;;;;;;;4.10;2.03;;;15.90;56.50;;;;;;5072619;28;20174;-51
2023/04/16 00:52:37;;;;;;;2.50;1.88;;;16.00;56.50;;;;;;5073154;28;20186;-51
2023/04/16 00:55:03;;;;;;;4.28;2.20;;;15.90;56.40;;;;;;5072421;28;20219;-54
2023/04/16 00:57:29;;;;;;;2.97;2.17;;;16.00;56.50;;;;;;5071066;28;20265;-54
2023/04/16 00:59:54;;;;;;;3.65;2.30;;;15.90;56.60;;;;;;5073622;28;20312;-51
2023/04/16 01:02:20;;;;;;;2.85;2.05;;;15.90;56.40;;;;;;5071108;28;20257;-55
2023/04/16 01:04:45;;;;;;;4.32;2.33;;;15.90;56.40;;;;;;5073543;28;20250;-55
2023/04/16 01:07:11;;;;;;;2.35;1.90;;;16.00;56.50;;;;;;5072703;28;20206;-53
2023/04/16 01:09:37;;;;;;;2.90;2.33;;;16.00;56.50;;;;;;5072398;28;20170;-55
2023/04/16 01:12:02;;;;;;;2.75;2.15;;;15.90;56.50;;;;;;5073103;28;20767;-54
2023/04/16 01:14:28;;;;;;;3.20;1.98;;;15.90;57.00;;;;;;5072874;28;20223;-55
2023/04/16 01:16:53;;;;;;;4.05;2.10;;;15.90;56.50;;;;;;5071230;28;20261;-55
2023/04/16 01:19:19;;;;;;;3.95;2.20;;;15.90;56.50;;;;;;5073037;28;20261;-55
2023/04/16 01:21:44;;;;;;;3.42;2.28;;;15.90;56.40;;;;;;5072802;28;20348;-54
2023/04/16 01:24:10;;;;;;;3.58;2.03;;;15.90;56.50;;;;;;5072216;28;20660;-53
2023/04/16 01:26:35;;;;;;;3.85;2.13;;;15.90;56.50;;;;;;5073164;28;20220;-52
2023/04/16 01:29:01;;;;;;;4.45;2.50;;;15.90;56.50;;;;;;5073025;28;20178;-54
2023/04/16 01:31:27;;;;;;;4.07;2.80;;;15.90;56.40;;;;;;5071363;28;20179;-54
2023/04/16 01:33:52;;;;;;;4.47;2.47;;;15.90;56.50;;;;;;5072456;28;20166;-53
2023/04/16 01:36:18;;;;;;;4.95;2.17;;;15.90;56.60;;;;;;5071851;28;20254;-54
2023/04/16 01:38:43;;;;;;;3.58;1.98;;;15.90;56.50;;;;;;5071451;28;20261;-52
2023/04/16 01:41:09;;;;;;;5.78;2.50;;;15.90;56.50;;;;;;5072065;28;20265;-54
2023/04/16 01:43:34;;;;;;;3.75;2.47;;;15.90;56.60;;;;;;5072735;28;20166;-54
2023/04/16 01:46:13;;;;;;;4.18;2.45;;;15.80;56.50;;;;;;5071825;28;20178;-54
2023/04/16 01:48:38;;;;;;;4.00;2.35;;;15.90;56.60;;;;;;5072744;28;20209;-53
2023/04/16 01:51:04;;;;;;;3.72;2.05;;;15.90;56.60;;;;;;5072779;28;20178;-54
2023/04/16 01:53:29;;;;;;;5.30;2.80;;;15.90;56.50;;;;;;5071824;28;20540;-53
2023/04/16 01:55:55;;;;;;;5.10;2.58;;;15.90;56.60;;;;;;5072764;28;20223;-52
2023/04/16 01:58:20;;;;;;;3.20;2.22;;;15.90;56.60;;;;;;5072404;28;20186;-50
2023/04/16 02:00:46;;;;;;;4.03;2.60;;;15.90;56.60;;;;;;5071846;28;20170;-53
2023/04/16 02:03:11;;;;;;;2.65;2.35;;;15.90;56.60;;;;;;5072508;28;20175;-53
2023/04/16 02:05:37;;;;;;;2.83;2.10;;;15.80;56.50;;;;;;5071885;28;20542;-51
2023/04/16 02:08:02;;;;;;;4.00;2.50;;;15.80;56.50;;;;;;5072297;28;20810;-54
2023/04/16 02:10:28;;;;;;;4.10;2.65;;;15.80;56.50;;;;;;5072032;28;20182;-53
2023/04/16 02:12:54;;;;;;;3.75;2.30;;;15.90;56.70;;;;;;5070668;28;20182;-55
2023/04/16 02:15:19;;;;;;;4.05;2.60;;;15.80;56.60;;;;;;5071294;28;20174;-53
2023/04/16 02:17:46;;;;;;;3.95;2.75;;;15.80;56.60;;;;;;5072162;28;20186;-54
2023/04/16 02:20:12;;;;;;;3.55;2.78;;;15.80;56.50;;;;;;5071530;28;20181;-54
2023/04/16 02:22:37;;;;;;;3.42;2.30;;;15.80;56.60;;;;;;5071910;28;20214;-51
2023/04/16 02:25:03;;;;;;;3.78;2.38;;;15.80;56.60;;;;;;5072291;28;20171;-53
2023/04/16 02:27:29;;;;;;;4.57;2.63;;;15.80;56.60;;;;;;5071505;28;20673;-53
2023/04/16 02:29:54;;;;;;;3.80;2.60;;;15.80;56.60;;;;;;5072573;28;20529;-52
2023/04/16 02:32:21;;;;;;;4.53;2.67;;;15.80;56.60;;;;;;5072244;28;20606;-54
2023/04/16 02:34:46;;;;;;;3.05;2.72;;;15.80;56.60;;;;;;5071689;28;20170;-53
2023/04/16 02:37:14;;;;;;;3.88;2.30;;;15.80;56.60;;;;;;5071703;28;20649;-55
2023/04/16 02:39:39;;;;;;;3.60;2.63;;;15.80;56.70;;;;;;5072710;28;20175;-54
2023/04/16 02:42:05;;;;;;;4.20;2.92;;;15.80;56.70;;;;;;5071149;28;20175;-56
2023/04/16 02:44:30;;;;;;;5.80;2.88;;;15.80;56.70;;;;;;5075831;28;20629;-54
2023/04/16 02:46:56;;;;;;;3.78;2.67;;;15.80;56.70;;;;;;5075119;28;20194;-55
2023/04/16 02:49:21;;;;;;;3.42;2.75;;;15.80;56.70;;;;;;5074431;28;20235;-53
2023/04/16 02:51:47;;;;;;;3.60;2.80;;;15.80;56.70;;;;;;5075537;28;20177;-51
2023/04/16 02:54:12;;;;;;;4.03;2.72;;;15.80;56.70;;;;;;5075338;28;20179;-54
2023/04/16 02:56:38;;;;;;;4.65;3.05;;;15.80;56.70;;;;;;5075180;28;20174;-54
2023/04/16 02:59:04;;;;;;;3.33;2.33;;;15.80;56.70;;;;;;5075933;28;20177;-54
2023/04/16 03:01:29;;;;;;;4.25;2.55;;;15.80;56.70;;;;;;5075603;28;20178;-55
2023/04/16 03:03:55;;;;;;;3.88;2.65;;;15.70;56.70;;;;;;5075076;28;20221;-55
2023/04/16 03:06:20;;;;;;;3.03;2.22;;;15.80;56.70;;;;;;5075326;28;20197;-55
2023/04/16 03:08:46;;;;;;;3.08;2.75;;;15.80;56.70;;;;;;5075680;28;20202;-53
2023/04/16 03:11:11;;;;;;;3.30;2.53;;;15.80;56.70;;;;;;5074722;28;20163;-53
2023/04/16 03:13:37;;;;;;;4.22;3.05;;;15.70;56.70;;;;;;5075620;28;20174;-54
2023/04/16 03:16:02;;;;;;;3.95;2.85;;;15.70;56.70;;;;;;5074589;28;20583;-55
2023/04/16 03:18:28;;;;;;;3.15;2.60;;;15.70;56.70;;;;;;5075240;28;20258;-54
2023/04/16 03:20:54;;;;;;;5.20;3.30;;;15.80;56.80;;;;;;5074891;28;20245;-57
2023/04/16 03:23:19;;;;;;;3.47;2.90;;;15.70;56.80;;;;;;5074120;28;20940;-63
2023/04/16 03:25:46;;;;;;;3.90;2.92;;;15.70;56.70;;;;;;5074942;28;20254;-51
2023/04/16 03:28:12;;;;;;;4.28;2.85;;;15.70;56.70;;;;;;5074976;28;20256;-52
2023/04/16 03:30:38;;;;;;;3.67;3.17;;;15.70;56.80;;;;;;5074398;28;20175;-53
2023/04/16 03:33:03;;;;;;;2.97;2.67;;;15.70;56.80;;;;;;5075143;28;20182;-54
2023/04/16 03:35:29;;;;;;;3.15;2.85;;;15.70;56.80;;;;;;5073636;28;20190;-55
2023/04/16 03:37:54;;;;;;;4.07;3.05;;;15.70;56.80;;;;;;5074625;28;20171;-53
2023/04/16 03:40:20;;;;;;;3.83;3.13;;;15.70;56.80;;;;;;5074677;28;20170;-56
2023/04/16 03:42:45;;;;;;;3.72;3.28;;;15.80;56.90;;;;;;5075110;28;20178;-53
2023/04/16 03:45:11;;;;;;;4.30;2.80;;;15.70;56.80;;;;;;5074085;28;20273;-55
2023/04/16 03:47:36;;;;;;;4.90;3.13;;;15.70;56.80;;;;;;5074694;28;20304;-54
2023/04/16 03:50:02;;;;;;;4.10;3.10;;;15.70;56.90;;;;;;5074542;28;20193;-52
2023/04/16 03:52:28;;;;;;;4.88;3.20;;;15.70;56.80;;;;;;5073598;28;20194;-53
2023/04/16 03:54:53;;;;;;;4.22;2.95;;;15.70;56.90;;;;;;5074139;28;20171;-50
2023/04/16 03:57:19;;;;;;;3.85;2.85;;;15.70;56.90;;;;;;5074509;28;20206;-54
2023/04/16 03:59:44;;;;;;;4.43;3.25;;;15.70;56.80;;;;;;5073778;28;20175;-53
2023/04/16 04:02:10;;;;;;;3.65;3.20;;;15.70;56.90;;;;;;5074618;28;20186;-54
2023/04/16 04:04:35;;;;;;;4.00;3.45;;;15.70;56.90;;;;;;5074386;28;20166;-55
2023/04/16 04:07:01;;;;;;;4.35;3.33;;;15.70;56.90;;;;;;5073039;28;20214;-51
2023/04/16 04:09:26;;;;;;;5.63;3.17;;;15.60;56.80;;;;;;5074113;28;20175;-54
2023/04/16 04:11:52;;;;;;;4.93;3.67;;;15.70;57.00;;;;;;5074585;28;20511;-51
2023/04/16 04:14:17;;;;;;;4.15;3.30;;;15.60;56.90;;;;;;5073079;28;20684;-54
2023/04/16 04:16:43;;;;;;;5.13;3.40;;;15.70;57.00;;;;;;5074187;28;20220;-50
2023/04/16 04:19:08;;;;;;;3.92;3.10;;;15.60;56.90;;;;;;5072533;28;20232;-55
2023/04/16 04:21:34;;;;;;;4.82;3.53;;;15.60;56.90;;;;;;5072990;28;20721;-53
2023/04/16 04:23:59;;;;;;;5.05;3.17;;;15.70;57.00;;;;;;5073871;28;20163;-54
2023/04/16 04:26:25;;;;;;;3.90;3.47;;;15.60;56.90;;;;;;5072103;28;20178;-54
2023/04/16 04:28:50;;;;;;;3.92;3.28;;;15.70;57.00;;;;;;5073708;28;20217;-50
2023/04/16 04:31:16;;;;;;;4.35;3.47;;;15.70;57.00;;;;;;5073641;28;20216;-55
2023/04/16 04:33:41;;;;;;;5.57;3.95;;;15.70;57.00;;;;;;5073272;28;20177;-55
2023/04/16 04:36:07;;;;;;;4.90;3.88;;;15.60;56.90;;;;;;5073129;28;20657;-56
2023/04/16 04:38:33;;;;;;;5.30;3.85;;;15.60;56.90;;;;;;5073768;28;20261;-53
2023/04/16 04:40:58;;;;;;;4.55;3.50;;;15.60;56.90;;;;;;5072329;28;20178;-55
2023/04/16 04:43:24;;;;;;;5.93;3.63;;;15.60;56.90;;;;;;5072911;28;20681;-54
2023/04/16 04:45:49;;;;;;;3.97;3.28;;;15.60;56.90;;;;;;5073873;28;20182;-55
2023/04/16 04:48:15;;;;;;;4.57;3.83;;;15.60;57.00;;;;;;5072518;28;20297;-54
2023/04/16 04:50:41;;;;;;;4.68;3.97;;;15.70;57.10;;;;;;5073509;28;20182;-53
2023/04/16 04:53:09;;;;;;;5.97;3.35;;;15.60;57.00;;;;;;5073389;28;20636;-53
2023/04/16 04:55:38;;;;;;;4.43;3.38;;;15.60;57.10;;;;;;5072804;28;20213;-54
2023/04/16 04:58:04;;;;;;;3.67;3.33;;;15.60;57.00;;;;;;5073430;28;20183;-53
2023/04/16 05:00:30;;;;;;;4.80;3.70;;;15.60;57.00;;;;;;5072894;28;20181;-54
2023/04/16 05:02:55;;;;;;;5.00;3.78;;;15.60;57.10;;;;;;5072436;28;20182;-54
2023/04/16 05:05:21;;;;;;;4.82;3.85;;;15.60;57.10;;;;;;5072583;28;20687;-55
2023/04/16 05:07:46;;;;;;;4.68;3.63;;;15.60;57.00;;;;;;5073058;28;20202;-52
2023/04/16 05:10:15;;;;;;;3.92;3.20;;;15.60;57.10;;;;;;5072307;28;20261;-53
2023/04/16 05:12:41;;;;;;;4.78;3.67;;;15.60;57.20;;;;;;5072566;28;20178;-49
2023/04/16 05:15:07;;;;;;;4.78;4.10;;;15.60;57.10;;;;;;5072525;28;20184;-54
2023/04/16 05:17:32;;;;;;;4.35;3.83;;;15.60;57.20;;;;;;5072083;28;20174;-53
2023/04/16 05:19:58;;;;;;;4.88;4.22;;;15.60;57.20;;;;;;5072748;28;20705;-55
2023/04/16 05:22:24;;;;;;;4.72;3.58;;;15.60;57.10;;;;;;5072075;28;20838;-54
2023/04/16 05:24:49;;;;;;;5.13;4.25;;;15.60;57.10;;;;;;5072295;28;20702;-54
2023/04/16 05:27:15;;;;;;;4.22;3.70;;;15.60;57.10;;;;;;5073030;28;20210;-53
2023/04/16 05:29:40;;;;;;;4.88;3.97;;;15.60;57.20;;;;;;5072252;28;20175;-53
2023/04/16 05:32:06;;;;;;;4.55;4.07;;;15.60;57.30;;;;;;5072747;28;20265;-53
2023/04/16 05:34:32;;;;;;;4.75;3.88;;;15.60;57.20;;;;;;5071607;28;20629;-54
2023/04/16 05:36:57;;;;;;;4.28;3.53;;;15.60;57.20;;;;;;5072287;28;20216;-55
2023/04/16 05:39:23;;;;;;;5.15;3.88;;;15.60;57.30;;;;;;5072524;28;20171;-55
2023/04/16 05:41:48;;;;;;;5.22;4.10;;;15.60;57.30;;;;;;5073052;28;20181;-53
2023/04/16 05:44:14;;;;;;;5.47;4.25;;;15.60;57.30;;;;;;5071753;28;20664;-55
2023/04/16 05:46:39;;;;;;;5.03;3.63;;;15.50;57.30;;;;;;5072962;28;20182;-55
2023/04/16 05:49:05;;;;;;;4.30;3.90;;;15.60;57.30;;;;;;5072513;28;20269;-53
2023/04/16 05:51:31;;;;;;;5.93;3.90;;;15.60;57.30;;;;;;5072154;28;20264;-52
2023/04/16 05:53:56;;;;;;;5.65;4.07;;;15.50;57.30;;;;;;5071159;28;20183;-53
2023/04/16 05:56:22;;;;;;;4.40;3.80;;;15.60;57.30;;;;;;5071548;28;20257;-53
2023/04/16 05:58:47;;;;;;;4.78;3.92;;;15.50;57.30;;;;;;5071684;28;20261;-54
2023/04/16 06:01:13;;;;;;;4.85;3.45;;;15.60;57.30;;;;;;5072265;28;20204;-54
2023/04/16 06:03:38;;;;;;;4.95;3.83;;;15.70;57.20;;;;;;5072651;28;20224;-55
2023/04/16 06:06:04;;;;;;;4.60;3.60;;;15.80;57.10;;;;;;5071912;28;20174;-52
2023/04/16 06:08:30;;;;;;;3.65;3.35;;;15.90;57.10;;;;;;5072612;28;20559;-54
2023/04/16 06:10:55;;;;;;;4.40;3.40;;;16.10;57.00;;;;;;5072454;28;20594;-54
2023/04/16 06:13:21;;;;;;;3.90;3.35;;;16.20;56.70;;;;;;5071477;28;20183;-52
2023/04/16 06:15:46;;;;;;;3.72;3.22;;;16.40;56.50;;;;;;5072443;28;20181;-52
2023/04/16 06:18:12;;;;;;;3.97;3.03;;;16.60;56.30;;;;;;5073695;28;20269;-54
2023/04/16 06:20:37;;;;;;;3.65;2.80;;;16.80;56.00;;;;;;5075620;28;20170;-56
2023/04/16 06:23:03;;;;;;;4.10;3.15;;;17.10;55.80;;;;;;5074968;28;20283;-53
2023/04/16 06:25:29;;;;;;;3.28;2.97;;;17.30;55.40;;;;;;5075409;28;20166;-50
2023/04/16 06:27:54;;;;;;;3.80;3.15;;;17.40;55.10;;;;;;5075638;28;20679;-53
2023/04/16 06:30:20;;;;;;;2.67;2.47;;;17.60;54.90;;;;;;5076161;28;20167;-54
2023/04/16 06:32:45;;;;;;;3.13;2.83;;;17.70;54.80;;;;;;5076188;28;20170;-55
2023/04/16 06:35:11;;;;;;;4.63;2.97;;;17.80;54.50;;;;;;5075393;28;20167;-56
2023/04/16 06:37:36;;;;;;;3.72;3.15;;;17.90;54.30;;;;;;5076263;28;20228;-55
2023/04/16 06:40:02;;;;;;;3.53;3.22;;;18.00;54.30;;;;;;5075564;28;20622;-56
2023/04/16 06:42:28;;;;;;;3.28;2.97;;;18.00;54.10;;;;;;5075939;28;20258;-55
2023/04/16 06:44:53;;;;;;;3.38;3.08;;;18.10;54.00;;;;;;5075819;28;20591;-55
2023/04/16 06:47:19;;;;;;;2.75;2.50;;;18.10;54.10;;;;;;5074639;28;20190;-55
2023/04/16 06:49:45;;;;;;;2.97;2.78;;;18.20;54.20;;;;;;5075679;28;20227;-54
2023/04/16 06:52:11;;;;;;;3.53;2.90;;;18.10;54.10;;;;;;5075229;28;20629;-53
2023/04/16 06:54:36;;;;;;;4.32;3.38;;;18.00;54.20;;;;;;5074925;28;20637;-53
2023/04/16 06:57:02;;;;;;;4.68;2.95;;;18.00;54.40;;;;;;5074471;28;20166;-56
2023/04/16 06:59:28;;;;;;;3.85;2.88;;;17.90;54.60;;;;;;5075419;28;20181;-56
2023/04/16 07:01:53;;;;;;;3.58;3.15;;;17.80;54.70;;;;;;5074665;28;20175;-55
2023/04/16 07:04:19;;;;;;;3.78;3.10;;;17.70;54.80;;;;;;5075520;28;20181;-56
2023/04/16 07:06:44;;;;;;;3.40;2.97;;;17.70;54.90;;;;;;5074286;28;20197;-55
2023/04/16 07:09:10;;;;;;;3.60;3.28;;;17.70;55.10;;;;;;5074515;28;20171;-53
2023/04/16 07:11:36;;;;;;;3.25;2.92;;;17.60;55.00;;;;;;5075585;28;20178;-51
2023/04/16 07:14:02;;;;;;;3.95;3.20;;;17.60;55.20;;;;;;5075401;28;20170;-53
2023/04/16 07:16:27;;;;;;;3.60;3.15;;;17.50;55.30;;;;;;5074188;28;20174;-55
2023/04/16 07:18:53;;;;;;;3.00;2.70;;;17.40;55.40;;;;;;5075307;28;20257;-54
2023/04/16 07:21:18;;;;;;;4.45;3.13;;;17.40;55.60;;;;;;5074697;28;20269;-55
2023/04/16 07:23:44;;;;;;;3.80;3.00;;;17.30;55.70;;;;;;5074547;28;20254;-54
2023/04/16 07:26:10;;;;;;;3.75;3.00;;;17.30;55.90;;;;;;5074959;28;20253;-54
2023/04/16 07:28:36;;;;;;;3.63;3.10;;;17.20;55.90;;;;;;5074736;28;20665;-55
2023/04/16 07:31:01;;;;;;;4.15;3.45;;;17.30;56.00;;;;;;5073801;28;20206;-54
2023/04/16 07:33:27;;;;;;;3.55;3.13;;;17.30;55.90;;;;;;5074894;28;20174;-54
2023/04/16 07:35:52;;;;;;;3.33;3.03;;;17.30;55.90;;;;;;5074939;28;20174;-54
2023/04/16 07:38:18;;;;;;;3.15;2.92;;;17.30;55.80;;;;;;5073872;28;20178;-52
2023/04/16 07:40:43;;;;;;;3.55;3.25;;;17.30;55.90;;;;;;5075143;28;20179;-53
2023/04/16 07:43:09;;;;;;;4.18;3.17;;;17.30;56.00;;;;;;5074590;28;20170;-56
2023/04/16 07:45:35;;;;;;;4.03;3.40;;;17.20;56.10;;;;;;5074205;28;20181;-55
2023/04/16 07:48:00;;;;;;;3.33;3.03;;;17.10;56.10;;;;;;5074962;28;20267;-53
2023/04/16 07:50:26;;;;;;;3.47;3.10;;;17.10;56.30;;;;;;5073400;28;20265;-53
2023/04/16 07:52:52;;;;;;;3.55;3.22;;;17.10;56.30;;;;;;5074356;28;20292;-54
2023/04/16 07:55:17;;;;;;;4.32;3.20;;;17.20;56.30;;;;;;5074168;28;20223;-50
2023/04/16 07:57:43;;;;;;;4.30;3.05;;;17.20;56.80;;;;;;5073560;28;20248;-52
2023/04/16 08:00:09;;;;;;;3.88;3.10;;;17.20;56.20;;;;;;5073917;28;20182;-53
2023/04/16 08:02:35;;;;;;;3.92;3.53;;;17.20;56.10;;;;;;5074234;28;20597;-55
2023/04/16 08:05:00;;;;;;;3.35;3.05;;;17.10;56.10;;;;;;5073322;28;20174;-54
2023/04/16 08:07:26;;;;;;;3.92;2.85;;;17.10;56.30;;;;;;5073971;28;20206;-55
2023/04/16 08:09:51;;;;;;;4.28;2.97;;;17.10;56.40;;;;;;5074327;28;20235;-54
2023/04/16 08:12:17;;;;;;;3.40;3.10;;;17.00;56.40;;;;;;5073471;28;20183;-52
2023/04/16 08:14:44;;;;;;;4.53;3.45;;;16.90;56.50;;;;;;5074394;28;20171;-53
2023/04/16 08:17:10;;;;;;;5.18;3.47;;;17.00;56.50;;;;;;5073805;28;20179;-53
2023/04/16 08:19:38;;;;;;;4.90;3.28;;;17.10;56.50;;;;;;5073725;28;20202;-55
2023/04/16 08:22:04;;;;;;;3.25;2.95;;;17.10;56.50;;;;;;5074131;28;20256;-53
2023/04/16 08:24:29;;;;;;;6.03;3.80;;;17.10;56.50;;;;;;5074052;28;20205;-54
2023/04/16 08:26:55;;;;;;;3.90;3.35;;;17.10;56.50;;;;;;5073328;28;20174;-50
2023/04/16 08:29:23;;;;;;;3.83;3.53;;;17.00;56.50;;;;;;5073638;28;20647;-52
2023/04/16 08:31:49;;;;;;;4.28;3.60;;;17.00;56.60;;;;;;5073971;28;20171;-55
2023/04/16 08:34:15;;;;;;;3.63;3.33;;;17.00;56.70;;;;;;5072579;28;20181;-51
2023/04/16 08:36:40;;;;;;;4.35;3.47;;;16.90;56.70;;;;;;5073458;28;20166;-55
2023/04/16 08:39:06;;;;;;;4.60;3.72;;;16.90;56.80;;;;;;5073694;28;20677;-55
2023/04/16 08:41:31;;;;;;;4.05;3.58;;;16.90;56.90;;;;;;5072893;28;20186;-55
2023/04/16 08:43:58;;;;;;;4.60;3.30;;;17.00;56.80;;;;;;5072498;28;20197;-55
2023/04/16 08:46:24;;;;;;;4.85;3.85;;;17.00;56.70;;;;;;5073037;28;20567;-53
2023/04/16 08:48:50;;;;;;;5.63;4.07;;;17.00;56.70;;;;;;5072997;28;20206;-55
2023/04/16 08:51:16;;;;;;;3.60;3.30;;;17.00;56.70;;;;;;5055642;28;20531;-55
2023/04/16 08:54:02;;;;;;;3.95;3.55;;;16.90;56.80;;;;;;5071864;28;20198;-55
2023/04/16 08:56:28;;;;;;;4.05;3.65;;;16.90;56.80;;;;;;5073175;28;20175;-55
2023/04/16 08:58:53;;;;;;;4.65;3.30;;;16.90;56.90;;;;;;5055565;28;20254;-55
2023/04/16 09:01:19;;;;;;;4.85;3.70;;;16.80;56.90;;;;;;5070709;28;20654;-52
2023/04/16 09:03:46;;;;;;;4.03;3.60;;;16.80;57.00;;;;;;5072372;28;20182;-55
2023/04/16 09:06:11;;;;;;;4.90;3.83;;;16.80;57.10;;;;;;5073179;28;20269;-55
2023/04/16 09:08:37;;;;;;;4.32;3.55;;;16.80;57.10;;;;;;5071514;28;20230;-54
2023/04/16 09:11:02;;;;;;;4.38;3.97;;;16.90;57.10;;;;;;5072033;28;20170;-53
2023/04/16 09:13:29;;;;;;;3.75;3.30;;;16.90;57.00;;;;;;5071979;28;20220;-55
2023/04/16 09:15:55;;;;;;;4.03;3.35;;;16.90;57.00;;;;;;5054610;28;20232;-54
2023/04/16 09:18:21;;;;;;;5.20;4.05;;;16.90;57.10;;;;;;5073099;28;20238;-51
2023/04/16 09:20:50;;;;;;;3.97;3.25;;;16.80;57.00;;;;;;5073218;28;20641;-56
2023/04/16 09:23:16;;;;;;;4.75;3.55;;;16.80;57.10;;;;;;5072079;28;20218;-53
2023/04/16 09:25:41;;;;;;;4.10;3.60;;;16.80;57.10;;;;;;5072901;28;20708;-54
2023/04/16 09:28:08;;;;;;;4.68;3.72;;;16.80;57.20;;;;;;5072695;28;20205;-54
2023/04/16 09:30:34;;;;;;;4.25;3.85;;;16.70;57.20;;;;;;5070588;28;20185;-54
2023/04/16 09:33:11;;;;;;;4.85;3.80;;;16.70;57.30;;;;;;5072453;28;20178;-57
2023/04/16 09:35:52;;;;;;;4.80;3.80;;;16.80;57.30;;;;;;5073276;28;20201;-56
2023/04/16 09:38:18;;;;;;;4.20;3.80;;;16.80;57.20;;;;;;5072735;28;20190;-54
2023/04/16 09:40:46;;;;;;;4.55;4.15;;;16.80;57.20;;;;;;5071849;28;20236;-55
2023/04/16 09:43:16;;;;;;;5.68;4.07;;;16.80;57.30;;;;;;5070570;28;20241;-55
2023/04/16 09:45:51;;;;;;;5.57;4.00;;;16.80;57.20;;;;;;5072690;28;20182;-55
2023/04/16 09:48:30;;;;;;;4.97;4.40;;;16.80;57.30;;;;;;5072712;28;20243;-54
2023/04/16 09:50:56;;;;;;;7.68;4.28;;;16.80;57.30;;;;;;5072221;28;20190;-63
2023/04/16 09:53:29;;;;;;;5.00;4.13;;;16.80;57.50;;;;;;5071087;28;20183;-62
2023/04/16 09:56:01;;;;;;;5.93;4.57;;;16.90;57.40;;;;;;5072713;28;20174;-62
2023/04/16 09:58:27;;;;;;;11.35;6.32;;;16.90;57.20;;;;;;5071498;28;20217;-60
2023/04/16 10:01:10;;;;;;;17.08;9.30;;;17.00;57.70;;;;;;5070908;28;20182;-60
2023/04/16 10:03:37;;;;;;;17.17;10.65;;;17.10;57.60;;;;;;5071444;28;20261;-59
2023/04/16 10:06:13;;;;;;;15.43;11.32;;;17.00;57.60;;;;;;5070758;28;20205;-59
2023/04/16 10:08:51;;;;;;;21.40;13.98;;;17.00;57.80;;;;;;5070682;28;20664;-59
2023/04/16 10:11:20;;;;;;;17.92;12.43;;;17.10;58.00;;;;;;5069702;28;20194;-61
2023/04/16 10:13:46;;;;;;;26.30;15.40;;;17.10;57.90;;;;;;5072072;28;20174;-61
2023/04/16 10:16:11;;;;;;;23.00;13.88;;;17.10;58.20;;;;;;5071884;28;20177;-61
2023/04/16 10:18:38;;;;;;;20.80;14.63;;;17.20;58.20;;;;;;5071978;28;21199;-60
2023/04/16 10:21:04;;;;;;;24.15;14.52;;;17.20;58.10;;;;;;5072214;28;20729;-61
2023/04/16 10:23:29;;;;;;;24.48;14.60;;;17.20;58.00;;;;;;5071947;28;20324;-60
2023/04/16 10:25:56;;;;;;;19.13;14.18;;;17.20;58.30;;;;;;5070247;28;20178;-61
2023/04/16 10:28:21;;;;;;;22.83;14.05;;;17.20;58.40;;;;;;5086395;28;20271;-61
2023/04/16 10:30:51;;;;;;;23.10;14.48;;;17.20;58.50;;;;;;5072040;28;20613;-62
2023/04/16 10:33:20;;;;;;;21.92;14.68;;;17.20;58.50;;;;;;5070280;28;20182;-63
2023/04/16 10:35:46;;;;;;;17.00;13.88;;;17.20;58.30;;;;;;5071773;28;20174;-63
2023/04/16 10:38:25;;;;;;;20.52;14.55;;;17.20;58.60;;;;;;5071954;28;20170;-62
2023/04/16 10:41:03;;;;;;;20.67;14.32;;;17.20;58.40;;;;;;5071589;28;20529;-62
2023/04/16 10:43:32;;;;;;;19.20;14.00;;;17.20;58.00;;;;;;5071776;28;20637;-61
2023/04/16 10:46:16;;;;;;;21.05;13.55;;;17.10;57.80;;;;;;5071882;28;20641;-61
2023/04/16 10:48:41;;;;;;;16.65;13.85;;;17.10;57.60;;;;;;5072179;28;20218;-61
2023/04/16 10:51:07;;;;;;;21.33;14.20;;;17.20;57.70;;;;;;5071322;28;20170;-61
2023/04/16 10:53:32;;;;;;;26.90;14.80;;;17.20;57.90;;;;;;5070024;28;20182;-60
2023/04/16 10:56:10;;;;;;;21.55;14.35;;;17.20;57.70;;;;;;5070876;28;20171;-61
2023/04/16 10:58:36;;;;;;;18.00;13.57;;;17.30;57.80;;;;;;5072101;28;20178;-62
2023/04/16 11:01:06;;;;;;;18.98;13.18;;;17.40;57.70;;;;;;5071445;28;20197;-63
2023/04/16 11:03:31;;;;;;;18.70;13.38;;;17.50;57.60;;;;;;5072436;28;20647;-61
2023/04/16 11:06:13;;;;;;;17.05;12.82;;;17.50;57.50;;;;;;5074071;28;20219;-62
2023/04/16 11:08:40;;;;;;;18.45;13.43;;;17.50;57.80;;;;;;5074365;28;20629;-60
2023/04/16 11:11:05;;;;;;;15.93;11.93;;;17.40;57.90;;;;;;5075074;28;20170;-62
2023/04/16 11:13:31;;;;;;;19.88;12.23;;;17.40;58.00;;;;;;5075437;28;20522;-61
2023/04/16 11:15:57;;;;;;;15.57;11.75;;;17.40;58.10;;;;;;5074619;28;20656;-61
2023/04/16 11:18:23;;;;;;;18.38;13.50;;;17.40;58.00;;;;;;5075066;28;20178;-59
2023/04/16 11:20:48;;;;;;;14.75;11.88;;;17.50;57.80;;;;;;5073455;28;20170;-60
2023/04/16 11:23:14;;;;;;;19.45;12.10;;;17.50;57.80;;;;;;5089596;28;20226;-60
2023/04/16 11:25:40;;;;;;;16.90;11.48;;;17.50;58.10;;;;;;5075309;28;20178;-61
2023/04/16 11:28:05;;;;;;;16.48;12.38;;;17.40;58.10;;;;;;5074703;28;20206;-60
2023/04/16 11:30:35;;;;;;;23.63;13.15;;;17.40;58.00;;;;;;5074293;28;20223;-62
2023/04/16 11:33:05;;;;;;;23.20;12.18;;;17.40;58.40;;;;;;5074594;28;20665;-64
2023/04/16 11:35:31;;;;;;;22.13;12.18;;;17.40;58.10;;;;;;5072922;28;20193;-67
2023/04/16 11:37:57;;;;;;;30.90;12.43;;;17.40;57.90;;;;;;5057206;28;20171;-66
2023/04/16 11:40:22;;;;;;;22.25;12.85;;;17.40;58.20;;;;;;5074516;28;20427;-64
2023/04/16 11:42:48;;;;;;;21.83;11.95;;;17.40;58.20;;;;;;5074346;28;20265;-64
2023/04/16 11:45:13;;;;;;;19.63;11.23;;;17.40;58.30;;;;;;5073769;28;20543;-63
2023/04/16 11:47:45;;;;;;;19.33;11.35;;;17.40;58.10;;;;;;5074835;28;20657;-64
2023/04/16 11:50:21;;;;;;;20.33;10.38;;;17.40;58.60;;;;;;5064535;28;20178;-64
2023/04/16 11:52:50;;;;;;;19.63;12.05;;;17.40;58.40;;;;;;5093082;28;20186;-64
2023/04/16 11:55:15;;;;;;;17.77;9.73;;;17.40;58.30;;;;;;5078650;28;20197;-63
2023/04/16 11:57:41;;;;;;;18.42;10.13;;;17.40;58.40;;;;;;5073585;28;20705;-64
2023/04/16 12:00:12;;;;;;;19.63;9.70;;;17.40;58.40;;;;;;5072524;28;20546;-64
2023/04/16 12:02:51;;;;;;;17.10;9.70;;;17.40;58.40;;;;;;5074303;28;20250;-63
2023/04/16 12:05:38;;;;;;;20.77;9.63;;;17.40;58.40;;;;;;5073148;28;20182;-63
2023/04/16 12:08:08;;;;;;;17.42;9.45;;;17.60;58.50;;;;;;5073996;28;20249;-60
2023/04/16 12:10:35;;;;;;;16.80;10.00;;;17.40;58.50;;;;;;5072765;28;20175;-65
2023/04/16 12:13:14;;;;;;;16.13;9.85;;;17.40;58.40;;;;;;5073579;28;20485;-66
2023/04/16 12:15:50;;;;;;;16.42;10.10;;;17.50;58.40;;;;;;5072362;28;20227;-64
2023/04/16 12:18:16;;;;;;;14.73;9.45;;;17.50;58.40;;;;;;5072320;28;20181;-60
2023/04/16 12:20:42;;;;;;;18.40;8.93;;;17.50;58.50;;;;;;5073601;28;20227;-63
2023/04/16 12:23:07;;;;;;;14.50;8.93;;;17.50;58.40;;;;;;5073038;28;20583;-62
2023/04/16 12:25:33;;;;;;;17.95;10.30;;;17.60;58.30;;;;;;5073103;28;20179;-65
2023/04/16 12:27:58;;;;;;;15.52;8.35;;;17.60;58.40;;;;;;5072816;28;20762;-66
2023/04/16 12:30:27;;;;;;;12.88;9.50;;;17.60;58.40;;;;;;5073555;28;20174;-65
2023/04/16 12:33:13;;;;;;;15.52;9.98;;;17.60;58.40;;;;;;5072628;28;20178;-66
2023/04/16 12:35:42;;;;;;;13.38;8.95;;;17.60;58.40;;;;;;5072674;28;20667;-63
2023/04/16 12:38:07;;;;;;;13.23;8.88;;;17.60;58.50;;;;;;5073050;28;20236;-62
2023/04/16 12:40:33;;;;;;;12.32;8.80;;;17.50;58.60;;;;;;5072895;28;20282;-61